METAR Formatted Surface Weather Observation
Issued by NWS

Home | Current Version | Previous Version | Text Only | Print | Product List | Glossary On
Versions: 1 2 3 4 5 6 7 8 9 10 11 12 13 14 15 16 17 18 19 20 21 22 23 24 25 26 27 28 29 30 31 32 33 34 35 36 37 38 39 40 41 42 43 44 45 46 47 48 49 50
000
SAUS43 KAPX 211155
MTRAPN
METAR KAPN 211154Z AUTO 19008KT 10SM FEW070 OVC080 04/01 A2942 RMK
AO2 RAB02E25 SLP967 P0000 60000 70007 T00390006 10044 20033 58003



USA.gov is the U.S. government's official web portal to all federal, state and local government web resources and services.